createdAt,value
2023-10-23T00:02:40.904Z,11.18
2023-10-23T00:06:41.366Z,11.21
2023-10-23T00:10:42.440Z,11.09
2023-10-23T00:14:42.899Z,11.14
2023-10-23T00:18:45.815Z,11.10
2023-10-23T00:22:46.144Z,10.98
2023-10-23T00:26:46.364Z,10.93
2023-10-23T00:30:48.414Z,10.92
2023-10-23T00:34:51.450Z,10.81
2023-10-23T00:38:51.810Z,10.75
2023-10-23T00:42:52.237Z,10.70
2023-10-23T00:46:53.923Z,10.78
2023-10-23T00:51:02.312Z,10.67
2023-10-23T00:55:03.977Z,10.64
2023-10-23T00:59:04.946Z,10.61
2023-10-23T01:03:06.261Z,10.63
2023-10-23T01:07:09.439Z,10.41
2023-10-23T01:11:09.945Z,10.23
2023-10-23T01:15:11.960Z,10.03
2023-10-23T01:19:12.217Z,9.90
2023-10-23T01:23:15.640Z,9.77
2023-10-23T01:27:18.560Z,9.60
2023-10-23T01:31:20.031Z,9.37
2023-10-23T01:35:23.200Z,9.29
2023-10-23T01:39:24.988Z,9.22
2023-10-23T01:43:27.933Z,9.11
2023-10-23T01:47:31.638Z,9.05
2023-10-23T01:51:31.926Z,8.77
2023-10-23T01:55:32.149Z,8.71
2023-10-23T01:59:35.015Z,8.66
2023-10-23T02:03:35.646Z,8.55
2023-10-23T02:07:36.113Z,8.52
2023-10-23T02:11:37.162Z,8.44
2023-10-23T02:15:40.675Z,8.30
2023-10-23T02:19:40.953Z,8.41
2023-10-23T02:23:55.742Z,8.34
2023-10-23T02:27:57.410Z,8.25
2023-10-23T02:32:03.881Z,8.21
2023-10-23T02:36:04.162Z,8.17
2023-10-23T02:40:05.159Z,8.08
2023-10-23T02:44:05.501Z,7.98
2023-10-23T02:48:09.199Z,7.80
2023-10-23T02:52:10.151Z,7.86
2023-10-23T02:56:14.614Z,7.88
2023-10-23T03:00:17.352Z,7.77
2023-10-23T03:04:20.385Z,7.76
2023-10-23T03:08:20.648Z,7.67
2023-10-23T03:12:21.228Z,7.69
2023-10-23T03:16:21.593Z,7.64
2023-10-23T03:20:26.972Z,7.54
2023-10-23T03:24:27.484Z,7.49
2023-10-23T03:28:27.892Z,7.54
2023-10-23T03:32:28.149Z,7.44
2023-10-23T03:36:31.441Z,7.38
2023-10-23T03:40:32.320Z,7.34
2023-10-23T03:44:32.586Z,7.38
2023-10-23T03:48:32.841Z,7.09
2023-10-23T03:52:36.352Z,7.17
2023-10-23T03:56:37.217Z,7.15
2023-10-23T04:00:37.657Z,7.06
2023-10-23T04:04:38.072Z,7.07
2023-10-23T04:08:41.092Z,7.01
2023-10-23T04:12:41.520Z,6.88
2023-10-23T04:16:41.779Z,6.88
2023-10-23T04:20:42.188Z,6.90
2023-10-23T04:24:45.306Z,6.87
2023-10-23T04:28:45.892Z,6.87
2023-10-23T04:32:46.219Z,6.78
2023-10-23T04:36:46.521Z,6.78
2023-10-23T04:40:51.556Z,6.72
2023-10-23T04:44:52.089Z,6.77
2023-10-23T04:48:52.423Z,6.71
2023-10-23T04:52:52.796Z,6.64
2023-10-23T04:56:55.634Z,6.61
2023-10-23T05:00:56.727Z,6.66
2023-10-23T05:04:57.030Z,6.64
2023-10-23T05:08:57.846Z,6.69
2023-10-23T05:13:00.809Z,6.75
2023-10-23T05:17:05.289Z,6.64
2023-10-23T05:21:11.279Z,6.74
2023-10-23T05:25:15.516Z,6.88
2023-10-23T05:29:18.339Z,6.94
2023-10-23T05:33:18.769Z,7.14
2023-10-23T05:37:20.223Z,7.37
2023-10-23T05:41:20.867Z,7.18
2023-10-23T05:45:23.754Z,7.25
2023-10-23T05:49:24.327Z,7.15
2023-10-23T05:53:24.734Z,7.01
2023-10-23T05:57:25.214Z,7.13
2023-10-23T06:01:28.219Z,7.05
2023-10-23T06:05:28.525Z,7.14
2023-10-23T06:09:31.252Z,7.23
2023-10-23T06:13:31.916Z,7.27
2023-10-23T06:17:34.859Z,7.29
2023-10-23T06:21:35.330Z,7.25
2023-10-23T06:25:35.806Z,7.28
2023-10-23T06:29:36.349Z,7.31
2023-10-23T06:33:40.374Z,7.48
2023-10-23T06:37:40.669Z,7.65
2023-10-23T06:41:40.939Z,7.85
2023-10-23T06:46:00.452Z,8.00
2023-10-23T06:50:06.362Z,8.17
2023-10-23T06:54:07.945Z,8.37
2023-10-23T06:58:08.199Z,8.67
2023-10-23T07:02:08.923Z,8.79
2023-10-23T07:06:12.202Z,9.02
2023-10-23T07:10:13.731Z,9.40
2023-10-23T07:14:14.096Z,9.56
2023-10-23T07:18:14.764Z,9.66
2023-10-23T07:22:17.830Z,9.76
2023-10-23T07:26:18.398Z,9.95
2023-10-23T07:30:19.086Z,10.16
2023-10-23T07:34:20.361Z,10.46
2023-10-23T07:38:23.194Z,10.82
2023-10-23T07:42:23.553Z,11.16
2023-10-23T07:46:23.983Z,11.38
2023-10-23T07:50:25.972Z,11.71
2023-10-23T07:54:28.966Z,11.86
2023-10-23T07:58:29.470Z,12.23
2023-10-23T08:02:29.914Z,12.51
2023-10-23T08:06:30.720Z,12.71
2023-10-23T08:10:34.116Z,13.23
2023-10-23T08:14:34.881Z,13.68
2023-10-23T08:18:39.072Z,13.83
2023-10-23T08:22:42.282Z,14.17
2023-10-23T08:26:45.277Z,14.40
2023-10-23T08:30:45.627Z,14.85
2023-10-23T08:34:45.997Z,14.51
2023-10-23T08:38:46.364Z,14.83
2023-10-23T08:42:49.399Z,15.01
2023-10-23T08:46:49.933Z,15.43
2023-10-23T08:50:52.369Z,15.68
2023-10-23T08:54:57.736Z,16.06
2023-10-23T08:59:03.949Z,16.35
2023-10-23T09:03:07.326Z,16.89
2023-10-23T09:07:07.865Z,17.34
2023-10-23T09:11:09.413Z,17.51
2023-10-23T09:15:25.961Z,17.93
2023-10-23T09:19:35.870Z,17.47
2023-10-23T09:23:36.341Z,17.47
2023-10-23T09:27:36.648Z,17.57
2023-10-23T09:31:42.893Z,17.74
2023-10-23T09:35:44.074Z,17.75
2023-10-23T09:39:44.517Z,17.87
2023-10-23T09:43:49.298Z,18.60
2023-10-23T09:48:00.111Z,19.12
2023-10-23T09:52:04.802Z,19.01
2023-10-23T09:56:11.928Z,18.56
2023-10-23T10:00:18.229Z,19.20
2023-10-23T10:04:29.844Z,19.96
2023-10-23T10:08:36.857Z,20.07
2023-10-23T10:12:39.991Z,19.53
2023-10-23T10:16:42.073Z,19.60
2023-10-23T10:20:49.561Z,19.59
2023-10-23T10:24:53.640Z,19.50
2023-10-23T10:28:56.720Z,20.31
2023-10-23T10:34:21.669Z,20.46
2023-10-23T10:37:30.647Z,20.45
2023-10-23T10:41:31.049Z,20.72
2023-10-23T10:45:34.488Z,20.70
2023-10-23T10:49:36.621Z,20.95
2023-10-23T10:53:43.008Z,21.05
2023-10-23T10:57:46.431Z,20.23
2023-10-23T11:01:47.483Z,20.38
2023-10-23T11:05:51.197Z,20.07
2023-10-23T11:09:54.750Z,20.26
2023-10-23T11:13:56.056Z,19.97
2023-10-23T11:17:57.503Z,19.06
2023-10-23T11:22:12.075Z,19.52
2023-10-23T11:26:15.002Z,20.07
2023-10-23T11:30:19.732Z,19.70
2023-10-23T11:34:20.842Z,20.17
2023-10-23T11:38:23.021Z,20.61
2023-10-23T11:42:26.492Z,20.93
2023-10-23T11:46:28.429Z,20.56
2023-10-23T11:50:30.230Z,20.14
2023-10-23T11:54:32.367Z,20.52
2023-10-23T11:58:36.283Z,21.36
2023-10-23T12:02:36.717Z,21.32
2023-10-23T12:06:37.796Z,21.64
2023-10-23T12:10:39.606Z,21.87
2023-10-23T12:14:42.783Z,22.58
2023-10-23T12:18:44.337Z,23.11
2023-10-23T12:22:47.613Z,22.64
2023-10-23T12:26:47.968Z,22.18
2023-10-23T12:30:51.048Z,21.26
2023-10-23T12:34:51.867Z,21.15
2023-10-23T12:38:52.192Z,20.76
2023-10-23T12:42:54.832Z,20.61
2023-10-23T12:46:57.886Z,20.67
2023-10-23T12:50:58.310Z,20.36
2023-10-23T12:54:58.673Z,20.49
2023-10-23T12:58:59.053Z,20.68
2023-10-23T13:03:02.397Z,20.45
2023-10-23T13:07:02.807Z,20.58
2023-10-23T13:11:03.556Z,20.55
2023-10-23T13:15:04.408Z,20.31
2023-10-23T13:19:08.031Z,20.20
2023-10-23T13:23:08.834Z,20.08
2023-10-23T13:27:09.213Z,19.99
2023-10-23T13:31:09.797Z,19.94
2023-10-23T13:35:15.994Z,19.68
2023-10-23T13:39:17.546Z,19.57
2023-10-23T13:43:17.986Z,19.67
2023-10-23T13:47:18.895Z,19.50
2023-10-23T13:51:21.803Z,19.40
2023-10-23T13:55:22.601Z,19.18
2023-10-23T13:59:22.906Z,19.04
2023-10-23T14:03:24.345Z,19.14
2023-10-23T14:07:29.807Z,19.20
2023-10-23T14:12:01.021Z,19.09
2023-10-23T14:15:51.482Z,19.07
2023-10-23T14:19:51.910Z,19.06
2023-10-23T14:23:54.791Z,19.00
2023-10-23T14:27:55.633Z,19.00
2023-10-23T14:31:56.414Z,18.97
2023-10-23T14:35:56.687Z,19.10
2023-10-23T14:39:59.829Z,19.04
2023-10-23T14:44:00.799Z,19.48
2023-10-23T14:48:01.118Z,20.01
2023-10-23T14:52:01.510Z,20.53
2023-10-23T14:56:11.754Z,20.00
2023-10-23T15:00:14.882Z,19.69
2023-10-23T15:04:15.475Z,18.93
2023-10-23T15:08:15.792Z,18.68
2023-10-23T15:12:18.688Z,18.60
2023-10-23T15:16:21.843Z,18.71
2023-10-23T15:20:23.446Z,18.70
2023-10-23T15:24:24.109Z,18.64
2023-10-23T15:28:29.273Z,18.45
2023-10-23T15:32:29.644Z,18.41
2023-10-23T15:36:31.296Z,18.21
2023-10-23T15:40:33.474Z,17.92
2023-10-23T15:44:38.097Z,17.86
2023-10-23T15:48:38.294Z,17.63
2023-10-23T15:52:38.572Z,17.54
2023-10-23T15:56:39.700Z,17.32
2023-10-23T16:00:42.724Z,17.04
2023-10-23T16:04:45.722Z,16.86
2023-10-23T16:08:46.775Z,16.68
2023-10-23T16:12:50.314Z,16.46
2023-10-23T16:16:56.485Z,16.28
2023-10-23T16:20:58.432Z,16.21
2023-10-23T16:24:58.759Z,16.08
2023-10-23T16:28:59.161Z,16.11
2023-10-23T16:33:02.073Z,15.92
2023-10-23T16:37:02.477Z,15.76
2023-10-23T16:41:02.919Z,15.79
2023-10-23T16:45:03.283Z,15.81
2023-10-23T16:49:06.877Z,15.77
2023-10-23T16:53:12.217Z,15.88
2023-10-23T16:57:13.972Z,15.52
2023-10-23T17:01:14.435Z,15.25
2023-10-23T17:05:17.607Z,15.10
2023-10-23T17:09:19.206Z,14.76
2023-10-23T17:13:19.545Z,14.80
2023-10-23T17:17:20.198Z,14.71
2023-10-23T17:21:23.392Z,14.67
2023-10-23T17:25:23.917Z,14.66
2023-10-23T17:29:24.317Z,14.42
2023-10-23T17:33:26.400Z,14.23
2023-10-23T17:37:29.691Z,14.07
2023-10-23T17:41:31.770Z,14.03
2023-10-23T17:45:32.264Z,13.99
2023-10-23T17:49:32.650Z,14.01
2023-10-23T17:53:38.378Z,13.79
2023-10-23T17:57:40.523Z,13.76
2023-10-23T18:01:46.266Z,13.66
2023-10-23T18:05:47.492Z,13.56
2023-10-23T18:09:50.605Z,13.47
2023-10-23T18:13:50.834Z,13.49
2023-10-23T18:17:53.709Z,13.52
2023-10-23T18:21:54.327Z,13.31
2023-10-23T18:26:02.866Z,13.34
2023-10-23T18:30:03.847Z,12.96
2023-10-23T18:34:25.426Z,13.38
2023-10-23T18:38:40.198Z,13.44
2023-10-23T18:43:17.855Z,12.73
2023-10-23T18:47:24.820Z,13.16
2023-10-23T18:51:40.976Z,12.96
2023-10-23T18:56:08.982Z,12.68
2023-10-23T19:00:23.100Z,13.01
2023-10-23T19:04:30.995Z,12.98
2023-10-23T19:08:44.062Z,12.98
2023-10-23T19:12:47.600Z,12.87
2023-10-23T19:16:55.542Z,12.90
2023-10-23T19:21:17.319Z,12.66
2023-10-23T19:25:23.156Z,12.74
2023-10-23T19:29:35.548Z,12.06
2023-10-23T19:33:59.156Z,11.98
2023-10-23T19:38:11.696Z,12.19
2023-10-23T19:42:33.354Z,12.50
2023-10-23T19:46:50.273Z,12.50
2023-10-23T19:51:13.975Z,12.10
2023-10-23T19:55:42.679Z,12.63
2023-10-23T20:00:03.957Z,12.04
2023-10-23T20:04:27.555Z,12.01
2023-10-23T20:08:40.953Z,11.99
2023-10-23T20:12:58.089Z,12.36
2023-10-23T20:17:17.120Z,12.24
2023-10-23T20:21:20.409Z,12.45
2023-10-23T20:25:28.077Z,12.48
2023-10-23T20:29:29.974Z,12.36
2023-10-23T20:33:36.855Z,11.94
2023-10-23T20:37:38.822Z,12.74
2023-10-23T20:41:41.920Z,12.75
2023-10-23T20:45:42.791Z,12.87
2023-10-23T20:49:43.328Z,12.95
2023-10-23T20:53:43.859Z,13.09
2023-10-23T20:57:46.772Z,13.01
2023-10-23T21:01:47.135Z,12.94
2023-10-23T21:05:49.525Z,13.10
2023-10-23T21:09:51.693Z,13.17
2023-10-23T21:13:56.919Z,13.13
2023-10-23T21:17:57.323Z,13.24
2023-10-23T21:22:00.501Z,13.24
2023-10-23T21:26:05.085Z,13.19
2023-10-23T21:30:10.210Z,13.19
2023-10-23T21:34:11.197Z,13.10
2023-10-23T21:38:11.663Z,13.15
2023-10-23T21:42:12.205Z,13.28
2023-10-23T21:46:17.401Z,13.26
2023-10-23T21:50:20.942Z,13.23
2023-10-23T21:54:22.149Z,13.18
2023-10-23T21:58:23.435Z,13.17
2023-10-23T22:02:27.270Z,13.15
2023-10-23T22:06:28.472Z,12.87
2023-10-23T22:10:30.241Z,12.88
2023-10-23T22:14:32.262Z,12.78
2023-10-23T22:18:37.106Z,12.65
2023-10-23T22:22:37.569Z,12.60
2023-10-23T22:26:38.033Z,12.50
2023-10-23T22:30:38.454Z,12.43
2023-10-23T22:34:41.686Z,12.21
2023-10-23T22:38:42.071Z,12.51
2023-10-23T22:42:42.478Z,12.44
2023-10-23T22:46:42.837Z,12.41
2023-10-23T22:50:47.913Z,12.46
2023-10-23T22:54:49.075Z,12.50
2023-10-23T22:58:50.323Z,12.54
2023-10-23T23:02:51.745Z,12.65
2023-10-23T23:06:56.678Z,12.51
2023-10-23T23:11:00.795Z,12.48
2023-10-23T23:15:02.034Z,12.56
2023-10-23T23:19:06.963Z,12.58
2023-10-23T23:23:09.908Z,12.49
2023-10-23T23:27:10.216Z,12.35
2023-10-23T23:31:10.630Z,12.38
2023-10-23T23:35:12.101Z,12.31
2023-10-23T23:39:14.966Z,12.38
2023-10-23T23:43:15.265Z,12.29
2023-10-23T23:47:15.490Z,12.49
2023-10-23T23:51:16.212Z,12.57
2023-10-23T23:55:19.229Z,12.60
2023-10-23T23:59:19.502Z,12.70
